createdAt,value
2018-03-30T00:00:49.934Z,1.10
2018-03-30T00:03:18.182Z,1.20
2018-03-30T00:05:46.457Z,1.10
2018-03-30T00:08:14.714Z,1.10
2018-03-30T00:10:49.909Z,1.10
2018-03-30T00:13:18.194Z,1.10
2018-03-30T00:15:46.475Z,1.00
2018-03-30T00:18:16.259Z,1.10
2018-03-30T00:20:45.338Z,1.10
2018-03-30T00:23:13.610Z,1.10
2018-03-30T00:25:41.871Z,1.10
2018-03-30T00:28:10.150Z,1.10
2018-03-30T00:30:38.423Z,1.00
2018-03-30T00:33:06.684Z,1.00
2018-03-30T00:35:35.707Z,1.00
2018-03-30T00:38:04.002Z,1.00
2018-03-30T00:40:32.272Z,0.90
2018-03-30T00:43:00.662Z,0.90
2018-03-30T00:45:28.935Z,0.90
2018-03-30T00:47:57.208Z,0.90
2018-03-30T00:50:25.474Z,0.90
2018-03-30T00:52:53.749Z,1.00
2018-03-30T00:55:22.010Z,0.90
2018-03-30T00:57:50.277Z,1.00
2018-03-30T01:00:18.552Z,0.90
2018-03-30T01:02:46.822Z,0.90
2018-03-30T01:05:15.851Z,0.90
2018-03-30T01:07:44.133Z,0.90
2018-03-30T01:10:12.410Z,0.80
2018-03-30T01:12:40.675Z,0.70
2018-03-30T01:15:08.936Z,0.80
2018-03-30T01:17:37.205Z,0.80
2018-03-30T01:20:05.470Z,0.80
2018-03-30T01:22:34.621Z,0.70
2018-03-30T01:25:02.858Z,0.70
2018-03-30T01:27:31.118Z,0.70
2018-03-30T01:30:00.156Z,0.80
2018-03-30T01:32:28.427Z,0.80
2018-03-30T01:34:56.710Z,0.70
2018-03-30T01:37:25.028Z,0.70
2018-03-30T01:39:54.065Z,0.70
2018-03-30T01:42:22.313Z,0.70
2018-03-30T01:44:50.618Z,0.60
2018-03-30T01:47:18.891Z,0.70
2018-03-30T01:49:47.160Z,0.60
2018-03-30T01:52:15.420Z,0.60
2018-03-30T01:54:43.681Z,0.70
2018-03-30T01:57:12.716Z,0.60
2018-03-30T01:59:41.032Z,0.60
2018-03-30T02:02:09.324Z,0.60
2018-03-30T02:04:38.346Z,0.60
2018-03-30T02:07:06.642Z,0.50
2018-03-30T02:09:34.947Z,0.50
2018-03-30T02:12:03.318Z,0.50
2018-03-30T02:14:31.582Z,0.50
2018-03-30T02:16:59.840Z,0.50
2018-03-30T02:19:28.109Z,0.50
2018-03-30T02:21:56.375Z,0.40
2018-03-30T02:24:25.414Z,0.40
2018-03-30T02:26:53.775Z,0.30
2018-03-30T02:29:22.046Z,0.40
2018-03-30T02:31:50.315Z,0.30
2018-03-30T02:34:18.574Z,0.40
2018-03-30T02:36:46.859Z,0.30
2018-03-30T02:39:15.878Z,0.30
2018-03-30T02:41:44.150Z,0.30
2018-03-30T02:44:12.431Z,0.30
2018-03-30T02:46:40.692Z,0.40
2018-03-30T02:49:08.960Z,0.20
2018-03-30T02:51:37.219Z,0.20
2018-03-30T02:54:06.248Z,0.20
2018-03-30T02:56:34.530Z,0.10
2018-03-30T02:59:02.811Z,0.10
2018-03-30T03:01:31.077Z,0.00
2018-03-30T03:03:59.335Z,0.10
2018-03-30T03:06:27.592Z,0.10
2018-03-30T03:08:56.620Z,0.00
2018-03-30T03:11:24.917Z,0.00
2018-03-30T03:13:53.175Z,0.10
2018-03-30T03:16:21.463Z,0.00
2018-03-30T03:18:49.720Z,0.10
2018-03-30T03:21:17.991Z,0.00
2018-03-30T03:23:46.255Z,0.00
2018-03-30T03:26:14.509Z,0.00
2018-03-30T03:28:43.585Z,0.00
2018-03-30T03:31:11.820Z,0.00
2018-03-30T03:33:40.106Z,0.00
2018-03-30T03:36:08.433Z,-0.10
2018-03-30T03:38:36.698Z,0.00
2018-03-30T03:41:04.955Z,0.00
2018-03-30T03:43:33.209Z,0.00
2018-03-30T03:46:01.473Z,0.00
2018-03-30T03:48:29.725Z,0.00
2018-03-30T03:50:57.982Z,0.00
2018-03-30T03:53:26.283Z,0.00
2018-03-30T03:55:54.554Z,0.00
2018-03-30T03:58:23.701Z,-0.20
2018-03-30T04:00:51.972Z,-0.20
2018-03-30T04:03:20.255Z,-0.40
2018-03-30T04:05:48.524Z,-0.40
2018-03-30T04:08:16.842Z,-0.40
2018-03-30T04:10:45.866Z,-0.40
2018-03-30T04:13:14.139Z,-0.40
2018-03-30T04:15:42.456Z,-0.40
2018-03-30T04:18:10.721Z,-0.40
2018-03-30T04:20:38.997Z,-0.30
2018-03-30T04:23:07.279Z,-0.40
2018-03-30T04:25:35.553Z,-0.30
2018-03-30T04:28:03.843Z,-0.40
2018-03-30T04:30:32.125Z,-0.40
2018-03-30T04:33:00.400Z,-0.40
2018-03-30T04:35:28.689Z,-0.40
2018-03-30T04:37:57.724Z,-0.40
2018-03-30T04:40:25.991Z,-0.40
2018-03-30T04:42:54.301Z,-0.40
2018-03-30T04:45:22.688Z,-0.50
2018-03-30T04:47:50.963Z,-0.60
2018-03-30T04:50:19.257Z,-0.60
2018-03-30T04:52:47.568Z,-0.60
2018-03-30T04:55:15.937Z,-0.70
2018-03-30T04:57:44.977Z,-0.70
2018-03-30T05:00:13.248Z,-0.70
2018-03-30T05:02:41.539Z,-0.80
2018-03-30T05:05:09.820Z,-0.70
2018-03-30T05:07:38.079Z,-0.60
2018-03-30T05:10:06.402Z,-0.60
2018-03-30T05:12:34.674Z,-0.50
2018-03-30T05:15:02.984Z,-0.70
2018-03-30T05:17:31.270Z,-0.60
2018-03-30T05:19:59.561Z,-0.50
2018-03-30T05:22:27.836Z,-0.50
2018-03-30T05:24:56.154Z,-0.50
2018-03-30T05:27:24.428Z,-0.60
2018-03-30T05:29:52.709Z,-0.50
2018-03-30T05:32:20.985Z,-0.40
2018-03-30T05:34:49.246Z,-0.40
2018-03-30T05:37:17.554Z,-0.40
2018-03-30T05:39:46.608Z,-0.50
2018-03-30T05:42:16.414Z,-0.70
2018-03-30T05:44:44.680Z,-0.70
2018-03-30T05:47:12.985Z,-0.80
2018-03-30T05:49:41.261Z,-0.80
2018-03-30T05:52:09.549Z,-0.80
2018-03-30T05:54:37.843Z,-0.70
2018-03-30T05:57:06.892Z,-0.60
2018-03-30T05:59:35.165Z,-0.70
2018-03-30T06:02:03.446Z,-0.50
2018-03-30T06:04:31.707Z,-0.40
2018-03-30T06:06:59.982Z,-0.30
2018-03-30T06:09:28.253Z,0.00
2018-03-30T06:11:56.630Z,0.10
2018-03-30T06:14:24.911Z,0.10
2018-03-30T06:16:53.199Z,0.30
2018-03-30T06:19:21.482Z,0.20
2018-03-30T06:21:49.748Z,0.30
2018-03-30T06:24:18.011Z,0.50
2018-03-30T06:26:46.342Z,0.60
2018-03-30T06:29:14.586Z,0.70
2018-03-30T06:31:42.901Z,0.80
2018-03-30T06:34:12.186Z,1.10
2018-03-30T06:36:40.457Z,1.10
2018-03-30T06:39:08.880Z,1.40
2018-03-30T06:41:37.183Z,1.50
2018-03-30T06:44:05.455Z,1.60
2018-03-30T06:46:33.730Z,1.60
2018-03-30T06:49:01.991Z,1.70
2018-03-30T06:51:30.306Z,1.70
2018-03-30T06:53:58.576Z,1.70
2018-03-30T06:56:26.833Z,1.70
2018-03-30T06:58:55.109Z,2.10
2018-03-30T07:01:23.368Z,2.40
2018-03-30T07:03:51.624Z,2.70
2018-03-30T07:06:20.649Z,2.40
2018-03-30T07:08:49.138Z,2.40
2018-03-30T07:11:17.384Z,2.20
2018-03-30T07:13:46.434Z,2.50
2018-03-30T07:16:14.698Z,2.50
2018-03-30T07:18:42.971Z,2.80
2018-03-30T07:21:11.241Z,2.90
2018-03-30T07:23:39.531Z,3.10
2018-03-30T07:26:07.795Z,3.20
2018-03-30T07:28:36.114Z,3.00
2018-03-30T07:31:04.376Z,3.20
2018-03-30T07:33:32.660Z,3.50
2018-03-30T07:36:00.936Z,3.60
2018-03-30T07:38:29.220Z,3.60
2018-03-30T07:40:57.488Z,3.80
2018-03-30T07:43:25.750Z,3.70
2018-03-30T07:45:54.010Z,4.30
2018-03-30T07:48:22.282Z,4.60
2018-03-30T07:50:50.570Z,4.70
2018-03-30T07:53:18.839Z,5.60
2018-03-30T07:55:47.106Z,5.60
2018-03-30T07:58:15.360Z,6.50
2018-03-30T08:00:44.384Z,5.90
2018-03-30T08:03:12.651Z,5.80
2018-03-30T08:05:40.973Z,6.00
2018-03-30T08:08:09.244Z,6.40
2018-03-30T08:10:37.506Z,6.80
2018-03-30T08:13:05.770Z,6.80
2018-03-30T08:15:34.189Z,7.00
2018-03-30T08:18:02.830Z,8.10
2018-03-30T08:20:31.107Z,7.60
2018-03-30T08:22:59.492Z,7.60
2018-03-30T08:25:27.818Z,7.00
2018-03-30T08:27:56.832Z,7.40
2018-03-30T08:30:25.109Z,7.40
2018-03-30T08:32:53.395Z,8.00
2018-03-30T08:35:21.645Z,7.70
2018-03-30T08:37:49.908Z,7.50
2018-03-30T08:40:18.926Z,8.90
2018-03-30T08:42:47.193Z,8.90
2018-03-30T08:45:15.487Z,8.00
2018-03-30T08:47:43.764Z,8.60
2018-03-30T08:50:12.064Z,9.10
2018-03-30T08:52:40.340Z,10.20
2018-03-30T08:55:08.638Z,10.10
2018-03-30T08:57:36.929Z,10.30
2018-03-30T09:00:05.243Z,10.00
2018-03-30T09:02:33.554Z,10.90
2018-03-30T09:05:01.830Z,11.50
2018-03-30T09:07:30.124Z,10.90
2018-03-30T09:09:59.895Z,11.10
2018-03-30T09:12:28.186Z,11.10
2018-03-30T09:14:56.437Z,10.60
2018-03-30T09:17:24.843Z,11.10
2018-03-30T09:19:53.116Z,11.40
2018-03-30T09:22:21.408Z,11.40
2018-03-30T09:24:49.653Z,11.50
2018-03-30T09:27:17.952Z,11.40
2018-03-30T09:29:52.501Z,12.00
2018-03-30T09:32:20.764Z,12.20
2018-03-30T09:34:49.035Z,13.00
2018-03-30T09:37:17.289Z,11.40
2018-03-30T09:39:45.607Z,12.60
2018-03-30T09:42:13.891Z,13.50
2018-03-30T09:44:42.916Z,13.40
2018-03-30T09:47:11.177Z,13.40
2018-03-30T09:49:39.477Z,13.30
2018-03-30T09:52:07.790Z,13.40
2018-03-30T09:54:36.048Z,14.40
2018-03-30T09:57:04.351Z,12.70
2018-03-30T09:59:32.607Z,12.70
2018-03-30T10:02:00.877Z,13.20
2018-03-30T10:04:29.161Z,13.30
2018-03-30T10:07:08.400Z,12.90
2018-03-30T10:09:37.076Z,13.70
2018-03-30T10:12:05.355Z,13.70
2018-03-30T10:14:33.617Z,14.30
2018-03-30T10:17:01.877Z,13.70
2018-03-30T10:19:30.181Z,14.20
2018-03-30T10:21:58.460Z,14.40
2018-03-30T10:24:26.770Z,14.30
2018-03-30T10:26:55.806Z,13.50
2018-03-30T10:29:24.064Z,13.40
2018-03-30T10:31:52.345Z,13.40
2018-03-30T10:34:20.596Z,13.50
2018-03-30T10:36:49.620Z,13.90
2018-03-30T10:39:17.882Z,13.90
2018-03-30T10:41:46.154Z,14.00
2018-03-30T10:44:14.401Z,15.10
2018-03-30T10:46:43.444Z,14.40
2018-03-30T10:49:11.696Z,14.30
2018-03-30T10:51:39.980Z,14.10
2018-03-30T10:54:08.238Z,13.80
2018-03-30T10:56:37.276Z,14.30
2018-03-30T10:59:05.553Z,14.20
2018-03-30T11:01:33.827Z,14.70
2018-03-30T11:04:02.081Z,14.00
2018-03-30T11:06:30.351Z,14.60
2018-03-30T11:08:59.369Z,14.90
2018-03-30T11:11:27.634Z,14.90
2018-03-30T11:13:55.906Z,14.80
2018-03-30T11:16:24.211Z,14.40
2018-03-30T11:18:52.474Z,14.60
2018-03-30T11:21:20.802Z,14.40
2018-03-30T11:23:50.055Z,14.70
2018-03-30T11:26:18.381Z,14.70
2018-03-30T11:28:46.717Z,15.10
2018-03-30T11:31:14.986Z,14.70
2018-03-30T11:33:43.247Z,14.70
2018-03-30T11:36:11.541Z,15.20
2018-03-30T11:38:39.803Z,14.40
2018-03-30T11:41:08.044Z,14.10
2018-03-30T11:43:37.062Z,13.80
2018-03-30T11:46:05.406Z,13.80
2018-03-30T11:48:34.456Z,13.70
2018-03-30T11:51:02.732Z,13.70
2018-03-30T11:53:31.013Z,13.90
2018-03-30T11:55:59.313Z,13.60
2018-03-30T11:58:27.537Z,13.80
2018-03-30T12:00:55.806Z,13.50
2018-03-30T12:03:24.070Z,13.60
2018-03-30T12:05:52.426Z,13.50
2018-03-30T12:08:20.695Z,13.60
2018-03-30T12:10:48.974Z,13.30
2018-03-30T12:13:17.251Z,13.20
2018-03-30T12:15:45.510Z,13.50
2018-03-30T12:18:13.783Z,13.80
2018-03-30T12:20:42.032Z,13.70
2018-03-30T12:23:10.301Z,14.00
2018-03-30T12:25:38.583Z,14.50
2018-03-30T12:28:06.857Z,14.60
2018-03-30T12:30:35.234Z,14.70
2018-03-30T12:33:03.522Z,14.50
2018-03-30T12:35:31.776Z,14.30
2018-03-30T12:38:00.061Z,14.30
2018-03-30T12:40:28.326Z,14.20
2018-03-30T12:42:56.633Z,14.20
2018-03-30T12:45:24.929Z,14.20
2018-03-30T12:47:53.211Z,14.20
2018-03-30T12:50:21.511Z,13.80
2018-03-30T12:52:50.535Z,13.50
2018-03-30T12:55:18.820Z,13.40
2018-03-30T12:57:47.106Z,13.30
2018-03-30T13:00:15.383Z,13.30
2018-03-30T13:02:43.689Z,13.20
2018-03-30T13:05:12.716Z,13.70
2018-03-30T13:07:41.028Z,13.60
2018-03-30T13:10:09.307Z,13.40
2018-03-30T13:12:37.567Z,13.50
2018-03-30T13:15:05.853Z,13.40
2018-03-30T13:17:34.131Z,13.50
2018-03-30T13:20:02.400Z,13.50
2018-03-30T13:22:30.656Z,13.60
2018-03-30T13:24:58.912Z,13.50
2018-03-30T13:27:27.945Z,13.50
2018-03-30T13:29:56.204Z,13.50
2018-03-30T13:32:24.495Z,13.40
2018-03-30T13:34:52.746Z,13.60
2018-03-30T13:37:21.019Z,13.40
2018-03-30T13:39:50.066Z,13.50
2018-03-30T13:42:18.430Z,13.50
2018-03-30T13:44:46.685Z,13.50
2018-03-30T13:47:14.945Z,13.20
2018-03-30T13:49:43.212Z,13.30
2018-03-30T13:52:15.829Z,13.40
2018-03-30T13:54:46.943Z,13.40
2018-03-30T13:57:19.768Z,13.20
2018-03-30T13:59:54.421Z,13.30
2018-03-30T14:05:51.477Z,13.40
2018-03-30T14:08:35.623Z,13.50
2018-03-30T14:11:05.543Z,13.50
2018-03-30T14:13:34.649Z,14.00
2018-03-30T14:16:05.706Z,14.00
2018-03-30T14:18:39.881Z,13.70
2018-03-30T14:21:18.098Z,13.70
2018-03-30T14:23:51.493Z,13.70
2018-03-30T14:29:27.720Z,13.50
2018-03-30T14:31:55.980Z,13.60
2018-03-30T14:34:27.200Z,13.70
2018-03-30T14:40:15.104Z,13.60
2018-03-30T14:42:53.919Z,13.50
2018-03-30T14:45:45.210Z,13.50
2018-03-30T14:48:14.212Z,13.40
2018-03-30T14:51:04.070Z,13.30
2018-03-30T14:53:33.347Z,13.30
2018-03-30T14:56:20.105Z,13.20
2018-03-30T14:58:55.970Z,13.20
2018-03-30T15:01:38.325Z,13.30
2018-03-30T15:04:12.453Z,13.50
2018-03-30T15:06:47.809Z,13.50
2018-03-30T15:09:43.564Z,13.40
2018-03-30T15:12:17.732Z,13.50
2018-03-30T15:14:49.458Z,13.60
2018-03-30T15:17:33.763Z,13.40
2018-03-30T15:20:12.968Z,13.20
2018-03-30T15:25:45.308Z,13.40
2018-03-30T15:28:15.744Z,13.40
2018-03-30T15:33:52.078Z,13.10
2018-03-30T15:36:24.114Z,13.10
2018-03-30T15:38:52.550Z,13.00
2018-03-30T15:41:21.591Z,12.90
2018-03-30T15:43:49.890Z,12.80
2018-03-30T15:46:28.068Z,12.90
2018-03-30T15:48:57.286Z,12.90
2018-03-30T15:51:26.461Z,12.90
2018-03-30T15:53:54.280Z,12.90
2018-03-30T15:56:22.590Z,12.90
2018-03-30T15:58:50.883Z,13.10
2018-03-30T16:01:19.158Z,13.00
2018-03-30T16:03:47.516Z,12.80
2018-03-30T16:06:15.766Z,12.90
2018-03-30T16:08:44.816Z,12.90
2018-03-30T16:14:04.920Z,12.80
2018-03-30T16:16:33.213Z,12.80
2018-03-30T16:19:00.976Z,12.80
2018-03-30T16:21:28.750Z,12.80
2018-03-30T16:23:56.539Z,12.80
2018-03-30T16:26:25.059Z,12.60
2018-03-30T16:28:52.834Z,12.60
2018-03-30T16:31:20.604Z,12.70
2018-03-30T16:33:48.374Z,12.70
2018-03-30T16:36:16.166Z,12.70
2018-03-30T16:38:43.935Z,12.60
2018-03-30T16:41:12.462Z,12.50
2018-03-30T16:43:40.241Z,12.50
2018-03-30T16:46:07.988Z,12.40
2018-03-30T16:48:35.792Z,12.40
2018-03-30T16:51:04.049Z,12.30
2018-03-30T16:53:31.815Z,12.30
2018-03-30T16:55:59.585Z,12.30
2018-03-30T16:58:27.357Z,12.30
2018-03-30T17:00:55.131Z,12.30
2018-03-30T17:03:22.920Z,12.30
2018-03-30T17:05:51.483Z,12.30
2018-03-30T17:08:20.954Z,12.20
2018-03-30T17:10:48.718Z,12.20
2018-03-30T17:13:16.486Z,12.10
2018-03-30T17:15:44.264Z,12.00
2018-03-30T17:18:12.038Z,12.00
2018-03-30T17:20:39.803Z,12.00
2018-03-30T17:23:07.573Z,11.90
2018-03-30T17:25:35.341Z,11.90
2018-03-30T17:28:03.116Z,11.90
2018-03-30T17:30:31.673Z,11.80
2018-03-30T17:32:59.453Z,11.80
2018-03-30T17:35:27.988Z,11.80
2018-03-30T17:37:55.762Z,11.80
2018-03-30T17:40:23.521Z,11.80
2018-03-30T17:42:51.315Z,11.70
2018-03-30T17:45:19.087Z,11.70
2018-03-30T17:47:46.853Z,11.70
2018-03-30T17:50:14.621Z,11.60
2018-03-30T17:52:42.384Z,11.60
2018-03-30T17:57:50.371Z,11.70
2018-03-30T18:00:18.152Z,11.60
2018-03-30T18:02:45.919Z,11.70
2018-03-30T18:05:13.694Z,11.50
2018-03-30T18:07:41.544Z,11.50
2018-03-30T18:10:10.022Z,11.30
2018-03-30T18:12:37.791Z,11.30
2018-03-30T18:15:05.576Z,11.20
2018-03-30T18:17:33.353Z,11.20
2018-03-30T18:20:01.908Z,11.20
2018-03-30T18:22:29.687Z,11.20
2018-03-30T18:24:58.229Z,11.50
2018-03-30T18:27:26.004Z,11.40
2018-03-30T18:29:53.797Z,11.50
2018-03-30T18:32:22.354Z,11.10
2018-03-30T18:34:50.138Z,11.10
2018-03-30T18:37:18.695Z,10.90
2018-03-30T18:39:46.471Z,10.80
2018-03-30T18:42:14.251Z,10.90
2018-03-30T18:44:42.067Z,11.00
2018-03-30T18:47:09.848Z,11.00
2018-03-30T18:49:37.637Z,11.10
2018-03-30T18:52:05.419Z,11.10
2018-03-30T18:54:33.976Z,11.00
2018-03-30T18:57:01.773Z,11.00
2018-03-30T18:59:30.416Z,10.90
2018-03-30T19:01:58.211Z,10.90
2018-03-30T19:04:25.984Z,10.70
2018-03-30T19:06:54.557Z,10.60
2018-03-30T19:09:22.341Z,10.60
2018-03-30T19:11:50.133Z,10.50
2018-03-30T19:14:17.942Z,10.50
2018-03-30T19:16:45.696Z,10.50
2018-03-30T19:19:13.480Z,10.50
2018-03-30T19:21:41.277Z,10.40
2018-03-30T19:24:09.126Z,10.20
2018-03-30T19:26:37.824Z,10.10
2018-03-30T19:29:05.587Z,10.10
2018-03-30T19:31:33.472Z,10.20
2018-03-30T19:34:01.303Z,10.20
2018-03-30T19:36:29.840Z,10.30
2018-03-30T19:38:57.650Z,10.30
2018-03-30T19:41:26.251Z,10.50
2018-03-30T19:43:54.038Z,10.50
2018-03-30T19:46:22.728Z,10.50
2018-03-30T19:48:50.493Z,10.40
2018-03-30T19:51:18.269Z,10.30
2018-03-30T19:53:46.032Z,10.30
2018-03-30T19:56:13.823Z,10.50
2018-03-30T19:58:41.591Z,10.30
2018-03-30T20:01:09.358Z,10.30
2018-03-30T20:03:37.134Z,10.40
2018-03-30T20:06:05.675Z,10.60
2018-03-30T20:08:33.455Z,10.50
2018-03-30T20:11:01.235Z,10.60
2018-03-30T20:13:29.014Z,10.50
2018-03-30T20:15:56.819Z,10.50
2018-03-30T20:18:24.593Z,10.50
2018-03-30T20:20:52.375Z,10.50
2018-03-30T20:23:20.152Z,10.50
2018-03-30T20:25:47.924Z,10.50
2018-03-30T20:28:15.702Z,10.40
2018-03-30T20:30:44.243Z,10.30
2018-03-30T20:33:12.023Z,10.30
2018-03-30T20:35:39.792Z,10.30
2018-03-30T20:38:07.583Z,10.30
2018-03-30T20:40:36.123Z,10.30
2018-03-30T20:43:03.907Z,10.30
2018-03-30T20:45:31.686Z,10.20
2018-03-30T20:48:00.291Z,10.20
2018-03-30T20:50:28.075Z,10.20
2018-03-30T20:52:55.848Z,10.10
2018-03-30T20:55:23.628Z,10.00
2018-03-30T20:57:51.386Z,10.00
2018-03-30T21:00:19.155Z,10.10
2018-03-30T21:02:46.927Z,10.10
2018-03-30T21:05:14.696Z,10.20
2018-03-30T21:07:42.453Z,10.10
2018-03-30T21:10:10.231Z,10.10
2018-03-30T21:12:37.997Z,10.00
2018-03-30T21:15:05.762Z,10.00
2018-03-30T21:20:34.135Z,9.80
2018-03-30T21:23:01.887Z,9.60
2018-03-30T21:25:29.658Z,9.60
2018-03-30T21:27:57.502Z,9.50
2018-03-30T21:30:26.128Z,9.50
2018-03-30T21:32:53.876Z,9.50
2018-03-30T21:35:21.646Z,9.50
2018-03-30T21:37:49.451Z,9.60
2018-03-30T21:40:17.211Z,9.60
2018-03-30T21:42:44.985Z,9.50
2018-03-30T21:45:13.534Z,9.20
2018-03-30T21:47:41.301Z,9.20
2018-03-30T21:50:09.099Z,9.10
2018-03-30T21:52:37.628Z,9.10
2018-03-30T21:55:05.413Z,9.10
2018-03-30T21:57:33.188Z,9.00
2018-03-30T22:00:00.961Z,9.00
2018-03-30T22:02:28.716Z,9.00
2018-03-30T22:04:56.485Z,9.00
2018-03-30T22:07:24.248Z,9.00
2018-03-30T22:09:52.012Z,9.00
2018-03-30T22:12:19.804Z,9.00
2018-03-30T22:14:48.324Z,8.90
2018-03-30T22:17:16.096Z,8.90
2018-03-30T22:19:43.932Z,8.90
2018-03-30T22:22:11.692Z,8.90
2018-03-30T22:24:39.461Z,9.00
2018-03-30T22:27:07.225Z,9.00
2018-03-30T22:29:34.989Z,9.10
2018-03-30T22:32:02.760Z,9.10
2018-03-30T22:34:30.557Z,9.10
2018-03-30T22:36:58.325Z,9.10
2018-03-30T22:39:26.105Z,9.10
2018-03-30T22:41:53.863Z,9.10
2018-03-30T22:44:21.640Z,9.10
2018-03-30T22:46:50.184Z,9.10
2018-03-30T22:49:17.937Z,9.10
2018-03-30T22:51:45.743Z,9.20
2018-03-30T22:54:13.513Z,9.20
2018-03-30T22:56:41.261Z,9.10
2018-03-30T22:59:09.024Z,8.90
2018-03-30T23:01:36.793Z,8.90
2018-03-30T23:04:04.570Z,8.90
2018-03-30T23:06:32.320Z,8.90
2018-03-30T23:09:00.086Z,8.90
2018-03-30T23:11:27.844Z,8.90
2018-03-30T23:13:55.608Z,8.90
2018-03-30T23:16:23.385Z,8.90
2018-03-30T23:18:51.147Z,8.90
2018-03-30T23:21:18.910Z,8.90
2018-03-30T23:23:46.672Z,8.90
2018-03-30T23:26:14.430Z,8.90
2018-03-30T23:28:42.198Z,8.90
2018-03-30T23:31:09.960Z,8.80
2018-03-30T23:33:37.750Z,8.70
2018-03-30T23:36:06.279Z,8.80
2018-03-30T23:38:34.049Z,8.70
2018-03-30T23:41:01.809Z,8.60
2018-03-30T23:43:29.577Z,8.60
2018-03-30T23:45:57.344Z,8.60
2018-03-30T23:48:25.141Z,8.60
2018-03-30T23:50:52.916Z,8.60
2018-03-30T23:53:21.464Z,8.60
2018-03-30T23:55:49.224Z,8.60
2018-03-30T23:58:17.004Z,8.60
